Time;durP1;ratioP1;P1;durP2;ratioP2;P2;SDS_P1;SDS_P2;PMS_P1;PMS_P2;Temp;Humidity;BMP_temperature;BMP_pressure;BME280_temperature;BME280_humidity;BME280_pressure;Samples;Min_cycle;Max_cycle;Signal;HPM_P1;HPM_P2
2022/06/14 00:00:53;;;;;;;3.00;1.85;;;25.50;81.50;;;;;;5062128;28;20234;-59
2022/06/14 00:03:39;;;;;;;0.40;0.40;;;25.50;81.60;;;;;;5067439;28;20045;-60
2022/06/14 00:06:21;;;;;;;1.02;0.75;;;25.50;81.60;;;;;;5050206;28;20056;-58
2022/06/14 00:08:49;;;;;;;0.20;0.20;;;25.50;81.60;;;;;;5061132;28;20385;-60
2022/06/14 00:11:21;;;;;;;0.40;0.40;;;25.50;81.50;;;;;;5061399;28;20053;-56
2022/06/14 00:13:49;;;;;;;0.50;0.50;;;25.50;81.50;;;;;;5060321;28;20067;-61
2022/06/14 00:16:17;;;;;;;0.43;0.43;;;25.50;81.60;;;;;;5063048;28;20064;-63
2022/06/14 00:18:45;;;;;;;0.40;0.40;;;25.50;81.60;;;;;;5050770;28;20051;-62
2022/06/14 00:21:13;;;;;;;1.05;0.65;;;25.50;81.60;;;;;;5068049;28;20040;-60
2022/06/14 00:23:40;;;;;;;0.30;0.30;;;25.50;81.60;;;;;;5055781;28;20049;-61
2022/06/14 00:26:09;;;;;;;0.40;0.40;;;25.40;81.50;;;;;;5061893;28;20040;-62
2022/06/14 00:28:36;;;;;;;0.20;0.20;;;25.40;81.40;;;;;;5060618;28;20075;-62
2022/06/14 00:31:10;;;;;;;0.40;0.40;;;25.50;81.40;;;;;;5065219;28;20415;-58
2022/06/14 00:33:37;;;;;;;0.90;0.75;;;25.50;81.50;;;;;;5062441;28;20040;-58
2022/06/14 00:36:08;;;;;;;1.05;0.40;;;25.40;81.40;;;;;;5054458;28;20098;-57
2022/06/14 00:38:37;;;;;;;0.40;0.40;;;25.40;81.50;;;;;;5060586;28;20072;-57
2022/06/14 00:41:05;;;;;;;0.20;0.20;;;25.40;81.50;;;;;;5067531;28;20496;-58
2022/06/14 00:43:33;;;;;;;0.40;0.40;;;25.40;81.50;;;;;;5060171;28;20047;-57
2022/06/14 00:46:11;;;;;;;;;;;25.40;81.50;;;;;;5064447;28;20052;-57
2022/06/14 00:48:41;;;;;;;0.30;0.30;;;25.40;81.50;;;;;;5059299;28;19924;-61
2022/06/14 00:51:16;;;;;;;0.50;0.50;;;25.40;81.50;;;;;;5059758;28;20056;-60
2022/06/14 00:53:54;;;;;;;0.30;0.30;;;25.40;81.50;;;;;;5054078;28;20570;-59
2022/06/14 00:56:24;;;;;;;;;;;25.40;81.60;;;;;;5066726;28;20052;-60
2022/06/14 00:59:03;;;;;;;0.30;0.30;;;25.40;81.60;;;;;;5058926;28;19920;-62
2022/06/14 01:01:35;;;;;;;0.50;0.50;;;25.40;81.40;;;;;;5065014;28;20040;-60
2022/06/14 01:04:14;;;;;;;1.35;0.70;;;25.40;81.40;;;;;;5065577;28;20115;-59
2022/06/14 01:06:50;;;;;;;1.65;1.00;;;25.40;81.30;;;;;;5048419;28;20038;-59
2022/06/14 01:09:33;;;;;;;0.63;0.50;;;25.40;81.10;;;;;;5063864;28;20055;-59
2022/06/14 01:12:03;;;;;;;0.40;0.40;;;25.40;81.10;;;;;;5064904;28;20052;-58
2022/06/14 01:14:47;;;;;;;0.50;0.50;;;25.30;81.20;;;;;;5064436;28;20053;-59
2022/06/14 01:17:15;;;;;;;0.30;0.30;;;25.30;81.10;;;;;;5065291;28;20539;-58
2022/06/14 01:19:42;;;;;;;;;;;25.30;81.00;;;;;;5060670;28;20044;-60
2022/06/14 01:22:09;;;;;;;0.35;0.35;;;25.30;81.10;;;;;;5061369;28;19927;-60
2022/06/14 01:24:39;;;;;;;;;;;25.30;81.10;;;;;;5065150;28;20611;-59
2022/06/14 01:27:10;;;;;;;0.68;0.68;;;25.30;81.20;;;;;;5060120;28;19920;-57
2022/06/14 01:29:41;;;;;;;0.40;0.40;;;25.30;81.10;;;;;;5049080;28;20052;-60
2022/06/14 01:32:13;;;;;;;0.30;0.30;;;25.30;81.10;;;;;;5053096;28;20048;-60
2022/06/14 01:34:45;;;;;;;0.20;0.20;;;25.30;81.10;;;;;;5063060;28;20060;-58
2022/06/14 01:37:13;;;;;;;0.28;0.28;;;25.30;81.10;;;;;;5069186;28;20059;-59
2022/06/14 01:39:40;;;;;;;;;;;25.30;81.10;;;;;;5062440;28;20427;-58
2022/06/14 01:42:45;;;;;;;0.20;0.20;;;25.30;81.50;;;;;;5063326;28;20393;-60
2022/06/14 01:45:59;;;;;;;1.25;1.10;;;25.20;82.00;;;;;;5061315;28;20496;-60
2022/06/14 01:48:33;;;;;;;0.30;0.30;;;25.20;81.40;;;;;;4963633;28;20058;-58
2022/06/14 01:54:34;;;;;;;0.85;0.65;;;25.20;81.40;;;;;;5042059;28;20068;-59
2022/06/14 01:57:21;;;;;;;0.50;0.50;;;25.30;82.00;;;;;;5014287;28;20061;-59
2022/06/14 02:00:09;;;;;;;0.32;0.32;;;25.20;81.20;;;;;;5051864;28;20051;-61
2022/06/14 02:02:49;;;;;;;0.25;0.25;;;25.20;81.20;;;;;;5055175;28;20412;-61
2022/06/14 02:05:32;;;;;;;0.30;0.30;;;25.20;81.10;;;;;;5062240;28;20514;-60
2022/06/14 02:08:11;;;;;;;0.30;0.30;;;25.20;81.10;;;;;;5061194;28;20052;-61
2022/06/14 02:11:11;;;;;;;2.67;0.85;;;25.20;81.20;;;;;;5045676;28;20052;-62
2022/06/14 02:13:45;;;;;;;3.92;0.50;;;25.20;81.20;;;;;;5057660;28;20056;-60
2022/06/14 02:16:30;;;;;;;0.30;0.30;;;25.20;81.90;;;;;;5060349;28;20048;-59
2022/06/14 02:19:18;;;;;;;0.40;0.40;;;25.20;81.30;;;;;;5059716;28;20044;-60
2022/06/14 02:21:51;;;;;;;1.08;0.75;;;25.20;81.30;;;;;;5076535;28;20048;-60
2022/06/14 02:24:29;;;;;;;0.40;0.40;;;25.20;81.20;;;;;;5070970;28;20492;-61
2022/06/14 02:27:35;;;;;;;0.40;0.40;;;25.20;81.20;;;;;;5066751;28;20499;-58
2022/06/14 02:30:11;;;;;;;0.30;0.30;;;25.20;81.20;;;;;;5055534;28;20040;-57
2022/06/14 02:32:51;;;;;;;0.40;0.40;;;25.10;81.30;;;;;;5058048;28;20512;-59
2022/06/14 02:35:25;;;;;;;0.30;0.30;;;25.10;81.40;;;;;;5053783;28;20389;-58
2022/06/14 02:37:52;;;;;;;1.38;0.70;;;25.10;81.60;;;;;;5062214;28;20048;-58
2022/06/14 02:40:26;;;;;;;0.30;0.30;;;25.10;81.50;;;;;;5053042;28;20067;-61
2022/06/14 02:43:06;;;;;;;0.77;0.75;;;25.10;81.30;;;;;;5063871;28;20165;-62
2022/06/14 02:45:39;;;;;;;0.35;0.35;;;25.10;81.10;;;;;;5058479;28;20055;-60
2022/06/14 02:48:29;;;;;;;0.40;0.40;;;25.10;81.20;;;;;;5051816;28;20108;-60
2022/06/14 02:51:05;;;;;;;0.30;0.30;;;25.10;81.30;;;;;;5059486;28;20051;-60
2022/06/14 02:53:51;;;;;;;0.63;0.55;;;25.10;81.40;;;;;;5057660;28;20415;-59
2022/06/14 02:56:44;;;;;;;1.10;0.63;;;25.10;81.20;;;;;;5061285;28;20419;-58
2022/06/14 02:59:30;;;;;;;0.63;0.63;;;25.10;81.50;;;;;;5061918;28;20053;-58
2022/06/14 03:02:12;;;;;;;0.70;0.70;;;25.10;81.30;;;;;;5055789;28;20055;-58
2022/06/14 03:04:49;;;;;;;0.85;0.85;;;25.10;81.40;;;;;;5066141;28;20040;-62
2022/06/14 03:07:39;;;;;;;0.70;0.70;;;25.00;81.30;;;;;;5060928;28;20037;-58
2022/06/14 03:10:07;;;;;;;0.60;0.60;;;25.00;81.30;;;;;;5046130;28;20099;-60
2022/06/14 03:12:34;;;;;;;0.30;0.30;;;25.00;81.10;;;;;;5060469;28;20053;-57
2022/06/14 03:15:14;;;;;;;0.45;0.45;;;25.00;81.20;;;;;;5058215;28;20052;-56
2022/06/14 03:17:59;;;;;;;0.52;0.52;;;25.00;81.20;;;;;;5050621;28;20528;-57
2022/06/14 03:20:38;;;;;;;2.15;0.82;;;25.00;81.10;;;;;;5061248;28;20064;-58
2022/06/14 03:23:44;;;;;;;0.65;0.65;;;25.00;81.30;;;;;;5059354;28;20408;-57
2022/06/14 03:26:36;;;;;;;0.70;0.65;;;25.00;81.20;;;;;;5040931;28;20088;-61
2022/06/14 03:29:19;;;;;;;5.10;0.45;;;25.00;81.40;;;;;;5055509;28;20315;-60
2022/06/14 03:31:49;;;;;;;0.28;0.28;;;25.00;81.40;;;;;;5050004;28;20492;-58
2022/06/14 03:34:43;;;;;;;0.40;0.40;;;25.00;81.20;;;;;;5064144;28;20076;-58
2022/06/14 03:37:12;;;;;;;0.20;0.20;;;25.00;81.20;;;;;;5052356;28;20052;-59
2022/06/14 03:39:44;;;;;;;0.47;0.47;;;25.00;81.10;;;;;;5063376;28;20415;-60
2022/06/14 03:42:12;;;;;;;0.45;0.40;;;24.90;81.30;;;;;;5060722;28;20044;-58
2022/06/14 03:44:41;;;;;;;0.60;0.60;;;25.00;81.30;;;;;;5056629;28;20503;-59
2022/06/14 03:47:21;;;;;;;0.55;0.55;;;25.00;81.40;;;;;;5069049;28;20051;-59
2022/06/14 03:50:00;;;;;;;;;;;24.90;81.30;;;;;;5059024;28;20052;-60
2022/06/14 03:52:44;;;;;;;0.55;0.55;;;24.90;81.10;;;;;;5057271;28;19928;-58
2022/06/14 03:55:41;;;;;;;0.50;0.50;;;24.90;81.30;;;;;;5054447;28;20060;-57
2022/06/14 03:58:31;;;;;;;0.30;0.30;;;24.90;81.30;;;;;;5064720;28;20053;-58
2022/06/14 04:01:22;;;;;;;1.75;0.85;;;24.90;81.30;;;;;;5072019;28;20427;-57
2022/06/14 04:04:27;;;;;;;1.33;1.02;;;24.90;81.20;;;;;;5064308;28;20292;-59
2022/06/14 04:07:21;;;;;;;0.20;0.20;;;24.90;81.40;;;;;;5059790;28;20052;-59
2022/06/14 04:10:30;;;;;;;0.70;0.57;;;24.90;81.60;;;;;;5053263;28;20060;-61
2022/06/14 04:13:16;;;;;;;0.32;0.32;;;24.90;81.80;;;;;;5044575;28;20075;-57
2022/06/14 04:15:55;;;;;;;0.20;0.20;;;24.90;81.80;;;;;;5059123;28;20044;-59
2022/06/14 04:18:34;;;;;;;0.82;0.82;;;24.90;81.70;;;;;;5060075;28;20443;-60
2022/06/14 04:21:28;;;;;;;0.47;0.47;;;24.90;81.70;;;;;;5057730;28;20063;-56
2022/06/14 04:24:25;;;;;;;0.57;0.57;;;25.00;81.70;;;;;;5062929;28;20043;-60
2022/06/14 04:26:52;;;;;;;0.57;0.50;;;24.90;81.70;;;;;;5055322;28;20033;-60
2022/06/14 04:29:42;;;;;;;1.88;1.10;;;24.90;81.60;;;;;;5065931;28;20053;-58
2022/06/14 04:32:12;;;;;;;1.70;0.82;;;24.90;81.60;;;;;;5064413;28;20516;-59
2022/06/14 04:34:52;;;;;;;0.65;0.60;;;24.90;81.60;;;;;;5060648;28;20057;-59
2022/06/14 04:37:29;;;;;;;0.30;0.30;;;24.90;81.60;;;;;;5064725;28;20456;-60
2022/06/14 04:40:29;;;;;;;0.50;0.50;;;24.90;81.60;;;;;;5056931;28;20044;-63
2022/06/14 04:43:06;;;;;;;1.55;1.25;;;25.00;81.70;;;;;;5054780;28;20063;-61
2022/06/14 04:45:54;;;;;;;1.75;0.85;;;25.00;81.70;;;;;;5060476;28;20476;-58
2022/06/14 04:48:30;;;;;;;0.70;0.52;;;25.00;81.50;;;;;;5065295;28;20063;-61
2022/06/14 04:51:26;;;;;;;12.13;1.10;;;25.10;81.50;;;;;;5060654;28;20036;-62
2022/06/14 04:54:08;;;;;;;2.72;1.45;;;25.00;81.30;;;;;;5055079;28;20048;-61
2022/06/14 04:57:05;;;;;;;0.90;0.88;;;25.00;81.20;;;;;;5064067;28;20444;-60
2022/06/14 04:59:53;;;;;;;0.63;0.50;;;25.00;81.40;;;;;;5062061;28;20272;-61
2022/06/14 05:02:26;;;;;;;0.38;0.38;;;25.10;81.40;;;;;;5063917;28;20052;-61
2022/06/14 05:04:58;;;;;;;0.43;0.43;;;25.10;81.10;;;;;;5056656;28;20056;-62
2022/06/14 05:07:43;;;;;;;0.38;0.38;;;25.00;80.80;;;;;;5063948;28;20040;-62
2022/06/14 05:10:25;;;;;;;0.70;0.70;;;25.00;80.80;;;;;;5063264;28;20052;-63
2022/06/14 05:13:07;;;;;;;0.63;0.52;;;25.00;80.70;;;;;;5042919;28;20296;-62
2022/06/14 05:15:47;;;;;;;0.40;0.40;;;25.00;80.60;;;;;;5062533;28;20416;-63
2022/06/14 05:18:34;;;;;;;0.40;0.40;;;25.00;80.50;;;;;;5063463;28;20064;-66
2022/06/14 05:21:24;;;;;;;0.40;0.40;;;25.00;80.80;;;;;;5063280;28;20047;-64
2022/06/14 05:23:54;;;;;;;0.45;0.45;;;25.00;80.80;;;;;;5066150;28;20074;-63
2022/06/14 05:26:33;;;;;;;0.60;0.60;;;25.00;80.80;;;;;;5049514;28;20052;-63
2022/06/14 05:29:06;;;;;;;2.13;1.13;;;25.00;81.10;;;;;;5066852;28;20045;-61
2022/06/14 05:31:39;;;;;;;0.40;0.40;;;25.00;81.20;;;;;;5068595;28;20144;-61
2022/06/14 05:34:17;;;;;;;0.40;0.40;;;25.00;81.20;;;;;;5064750;28;20460;-59
2022/06/14 05:36:51;;;;;;;;;;;25.10;81.50;;;;;;5077786;28;20040;-60
2022/06/14 05:39:29;;;;;;;2.47;1.88;;;25.00;81.60;;;;;;5064450;28;20374;-60
2022/06/14 05:42:08;;;;;;;1.95;1.15;;;25.10;81.80;;;;;;5064182;28;20408;-63
2022/06/14 05:44:42;;;;;;;0.32;0.32;;;25.10;81.80;;;;;;5040166;28;20064;-60
2022/06/14 05:47:16;;;;;;;0.47;0.47;;;25.00;81.70;;;;;;5065128;28;20045;-58
2022/06/14 05:49:55;;;;;;;0.30;0.30;;;24.90;81.10;;;;;;5060892;28;20063;-59
2022/06/14 05:52:41;;;;;;;0.30;0.30;;;24.90;80.80;;;;;;5063259;28;20053;-60
2022/06/14 05:55:16;;;;;;;1.45;0.75;;;25.00;80.20;;;;;;5063806;28;20048;-59
2022/06/14 05:57:54;;;;;;;0.75;0.45;;;25.00;80.10;;;;;;5061996;28;20455;-64
2022/06/14 06:00:35;;;;;;;0.93;0.60;;;25.00;80.10;;;;;;5063823;28;20056;-62
2022/06/14 06:03:08;;;;;;;0.50;0.50;;;25.00;80.50;;;;;;5061087;28;20051;-62
2022/06/14 06:06:07;;;;;;;0.30;0.30;;;25.00;80.50;;;;;;5069514;28;20052;-62
2022/06/14 06:08:49;;;;;;;0.40;0.40;;;25.10;80.50;;;;;;5040306;28;20064;-63
2022/06/14 06:11:25;;;;;;;0.40;0.40;;;25.00;80.50;;;;;;5064272;28;20056;-62
2022/06/14 06:14:00;;;;;;;0.30;0.30;;;25.00;80.60;;;;;;5058712;28;20415;-62
2022/06/14 06:16:40;;;;;;;0.68;0.68;;;25.10;80.70;;;;;;5063005;28;20500;-59
2022/06/14 06:19:13;;;;;;;0.95;0.82;;;25.10;80.90;;;;;;5057702;28;20564;-65
2022/06/14 06:22:00;;;;;;;0.50;0.50;;;25.10;80.90;;;;;;5065200;28;20521;-61
2022/06/14 06:24:52;;;;;;;0.68;0.68;;;25.10;81.10;;;;;;5063070;28;20044;-61
2022/06/14 06:27:39;;;;;;;0.57;0.57;;;25.10;81.10;;;;;;5060202;28;20052;-58
2022/06/14 06:30:19;;;;;;;1.30;1.17;;;25.10;81.30;;;;;;5067266;28;20099;-62
2022/06/14 06:32:47;;;;;;;0.47;0.47;;;25.20;81.40;;;;;;5056281;28;20048;-58
2022/06/14 06:35:14;;;;;;;0.45;0.45;;;25.20;81.50;;;;;;5061763;28;20053;-62
2022/06/14 06:37:55;;;;;;;;;;;25.20;81.60;;;;;;5064524;28;20056;-61
2022/06/14 06:40:24;;;;;;;0.85;0.40;;;25.20;81.60;;;;;;5057073;28;19921;-61
2022/06/14 06:42:59;;;;;;;0.60;0.60;;;25.20;81.80;;;;;;5078241;28;20051;-62
2022/06/14 06:45:39;;;;;;;0.60;0.60;;;25.20;82.00;;;;;;5059460;28;20063;-62
2022/06/14 06:48:35;;;;;;;0.20;0.20;;;25.20;81.90;;;;;;5063501;28;20049;-59
2022/06/14 06:51:07;;;;;;;0.40;0.40;;;25.20;82.10;;;;;;5048182;28;20051;-61
2022/06/14 06:53:50;;;;;;;2.00;1.13;;;25.20;82.20;;;;;;5060777;28;20531;-63
2022/06/14 06:56:36;;;;;;;0.52;0.52;;;25.20;82.20;;;;;;5064519;28;20055;-60
2022/06/14 06:59:17;;;;;;;1.83;1.17;;;25.20;82.40;;;;;;5066236;28;20051;-63
2022/06/14 07:01:45;;;;;;;0.32;0.32;;;25.20;82.30;;;;;;5062167;28;20460;-62
2022/06/14 07:07:26;;;;;;;1.75;1.10;;;25.30;82.70;;;;;;5069507;28;20068;-59
2022/06/14 07:10:03;;;;;;;0.45;0.45;;;25.30;82.90;;;;;;5071153;28;20578;-61
2022/06/14 07:12:54;;;;;;;1.05;0.68;;;25.30;83.00;;;;;;5071115;28;20056;-59
2022/06/14 07:15:33;;;;;;;0.28;0.28;;;25.30;83.30;;;;;;5072764;28;20055;-60
2022/06/14 07:18:23;;;;;;;0.88;0.88;;;25.30;83.30;;;;;;5064399;28;20053;-63
2022/06/14 07:20:57;;;;;;;0.32;0.32;;;25.30;83.50;;;;;;5076509;28;20056;-65
2022/06/14 07:23:57;;;;;;;2.17;1.30;;;25.30;83.60;;;;;;5062247;28;20049;-62
2022/06/14 07:26:32;;;;;;;0.50;0.50;;;25.40;84.10;;;;;;5069252;28;20051;-59
2022/06/14 07:29:17;;;;;;;0.30;0.30;;;24.80;75.10;;;;;;5067630;28;20048;-65
2022/06/14 07:31:49;;;;;;;0.40;0.40;;;24.40;76.30;;;;;;5067345;28;20703;-61
2022/06/14 07:34:17;;;;;;;0.40;0.40;;;24.50;76.40;;;;;;5070107;28;20415;-65
2022/06/14 07:36:47;;;;;;;;;;;24.70;77.70;;;;;;5064305;28;20049;-60
2022/06/14 07:39:33;;;;;;;0.30;0.30;;;24.90;78.30;;;;;;5068079;28;19927;-63
2022/06/14 07:42:09;;;;;;;0.30;0.30;;;25.00;78.30;;;;;;5060310;28;20036;-61
2022/06/14 07:44:36;;;;;;;0.63;0.60;;;25.00;78.40;;;;;;5060915;28;20033;-63
2022/06/14 07:47:16;;;;;;;2.00;1.38;;;25.00;77.70;;;;;;5059825;28;20036;-64
2022/06/14 07:49:55;;;;;;;0.60;0.60;;;25.10;77.50;;;;;;5062009;28;20048;-67
2022/06/14 07:52:26;;;;;;;;;;;25.10;77.80;;;;;;5062797;28;20488;-61
2022/06/14 07:55:02;;;;;;;0.82;0.82;;;25.10;77.00;;;;;;5062257;28;20339;-63
2022/06/14 07:57:38;;;;;;;1.55;0.85;;;25.10;76.90;;;;;;5064599;28;20074;-62
2022/06/14 08:03:31;;;;;;;0.30;0.30;;;25.10;76.40;;;;;;5064230;28;20044;-62
2022/06/14 08:06:05;;;;;;;0.38;0.38;;;25.20;76.90;;;;;;5064924;28;20525;-65
2022/06/14 08:08:36;;;;;;;0.70;0.70;;;25.20;76.80;;;;;;5041385;28;20419;-65
2022/06/14 08:11:09;;;;;;;1.30;1.02;;;25.10;76.50;;;;;;5060642;28;20045;-67
2022/06/14 08:14:03;;;;;;;2.25;0.55;;;25.10;76.50;;;;;;5066122;28;20044;-59
2022/06/14 08:16:31;;;;;;;0.30;0.30;;;25.10;76.50;;;;;;5060186;28;20055;-62
2022/06/14 08:19:07;;;;;;;3.47;1.50;;;25.10;76.40;;;;;;5062232;28;20047;-62
2022/06/14 08:21:49;;;;;;;0.50;0.50;;;25.20;76.60;;;;;;5062553;28;20053;-62
2022/06/14 08:24:21;;;;;;;2.45;1.33;;;25.20;76.70;;;;;;5068610;28;20055;-62
2022/06/14 08:27:05;;;;;;;1.20;0.55;;;25.20;76.50;;;;;;5056114;28;20451;-61
2022/06/14 08:29:39;;;;;;;1.25;0.65;;;25.20;76.50;;;;;;5064171;28;20479;-60
2022/06/14 08:32:25;;;;;;;1.45;1.10;;;25.20;76.50;;;;;;5065611;28;20067;-60
2022/06/14 08:35:15;;;;;;;0.75;0.75;;;25.20;76.00;;;;;;5061642;28;20049;-62
2022/06/14 08:37:52;;;;;;;0.40;0.40;;;25.20;76.10;;;;;;5044421;28;20506;-62
2022/06/14 08:40:51;;;;;;;1.45;1.30;;;25.20;76.50;;;;;;5068060;28;20502;-60
2022/06/14 08:43:36;;;;;;;0.30;0.30;;;25.20;76.00;;;;;;5031505;28;20377;-61
2022/06/14 08:46:41;;;;;;;1.42;1.25;;;25.20;75.90;;;;;;5075500;28;20052;-61
2022/06/14 08:49:21;;;;;;;0.45;0.45;;;25.20;76.00;;;;;;5065800;28;20083;-62
2022/06/14 08:52:25;;;;;;;11.77;0.93;;;25.20;75.90;;;;;;5073389;28;20071;-61
2022/06/14 08:55:27;;;;;;;0.32;0.32;;;25.20;76.00;;;;;;5067491;28;20059;-58
2022/06/14 08:58:24;;;;;;;0.68;0.68;;;25.20;76.50;;;;;;5063055;28;20051;-64
2022/06/14 09:01:07;;;;;;;0.20;0.20;;;25.20;76.70;;;;;;5065056;28;20070;-62
2022/06/14 09:03:41;;;;;;;;;;;25.20;76.70;;;;;;5063760;28;20063;-63
2022/06/14 09:06:33;;;;;;;0.60;0.60;;;25.20;76.90;;;;;;5074457;28;19928;-63
2022/06/14 09:09:34;;;;;;;1.15;0.70;;;25.20;77.10;;;;;;5068211;28;20048;-64
2022/06/14 09:12:18;;;;;;;0.30;0.30;;;25.20;76.90;;;;;;5065325;28;20053;-65
2022/06/14 09:15:21;;;;;;;0.50;0.50;;;25.20;77.20;;;;;;5067771;28;20036;-66
2022/06/14 09:18:00;;;;;;;1.23;0.70;;;25.20;77.50;;;;;;5066110;28;20063;-62
2022/06/14 09:20:49;;;;;;;0.50;0.50;;;25.20;77.90;;;;;;5066367;28;20056;-65
2022/06/14 09:23:42;;;;;;;0.65;0.60;;;25.20;78.20;;;;;;5067724;28;20140;-60
2022/06/14 09:26:21;;;;;;;0.40;0.40;;;25.20;78.20;;;;;;5058692;28;20064;-60
2022/06/14 09:29:26;;;;;;;0.68;0.68;;;25.20;77.90;;;;;;5059712;28;20058;-59
2022/06/14 09:32:25;;;;;;;2.92;1.83;;;25.20;78.10;;;;;;5065634;28;20040;-59
2022/06/14 09:35:08;;;;;;;0.50;0.50;;;25.20;78.30;;;;;;5064888;28;20047;-60
2022/06/14 09:37:44;;;;;;;0.45;0.45;;;25.20;78.30;;;;;;5052233;28;20045;-61
2022/06/14 09:40:24;;;;;;;0.30;0.30;;;25.20;78.30;;;;;;5066112;28;20404;-62
2022/06/14 09:43:28;;;;;;;0.63;0.63;;;25.20;78.50;;;;;;5067037;28;20063;-60
2022/06/14 09:46:25;;;;;;;3.85;1.92;;;25.20;78.60;;;;;;5052371;28;20483;-57
2022/06/14 09:49:26;;;;;;;1.33;0.82;;;25.20;78.70;;;;;;5060520;28;20456;-59
2022/06/14 09:52:12;;;;;;;0.50;0.50;;;25.20;78.00;;;;;;5068030;28;20482;-60
2022/06/14 09:55:10;;;;;;;0.50;0.50;;;25.20;77.90;;;;;;5051711;28;20044;-62
2022/06/14 09:57:43;;;;;;;0.30;0.30;;;25.20;77.90;;;;;;5066115;28;20036;-61
2022/06/14 10:00:16;;;;;;;1.65;1.38;;;25.20;77.80;;;;;;5058892;28;20064;-60
2022/06/14 10:03:02;;;;;;;1.65;0.55;;;25.20;77.90;;;;;;5065691;28;20053;-62
2022/06/14 10:05:49;;;;;;;1.45;0.95;;;25.20;78.20;;;;;;5062079;28;20108;-61
2022/06/14 10:08:31;;;;;;;1.17;0.93;;;25.30;78.40;;;;;;5064872;28;20049;-61
2022/06/14 10:11:09;;;;;;;0.70;0.70;;;25.20;78.60;;;;;;5062225;28;20048;-60
2022/06/14 10:14:18;;;;;;;0.43;0.43;;;25.30;78.90;;;;;;5058707;28;20119;-60
2022/06/14 10:17:12;;;;;;;0.40;0.40;;;25.30;79.10;;;;;;5066770;28;20047;-58
2022/06/14 10:19:57;;;;;;;1.33;0.77;;;25.30;79.30;;;;;;5066323;28;20078;-62
2022/06/14 10:22:46;;;;;;;0.57;0.55;;;25.30;78.80;;;;;;5061369;28;20528;-62
2022/06/14 10:25:31;;;;;;;0.45;0.45;;;25.30;78.80;;;;;;5072657;28;20053;-61
2022/06/14 10:28:17;;;;;;;0.30;0.30;;;25.30;78.90;;;;;;5066625;28;20271;-65
2022/06/14 10:30:53;;;;;;;2.53;1.15;;;25.30;79.40;;;;;;5067640;28;20045;-65
2022/06/14 10:33:54;;;;;;;0.40;0.40;;;25.30;79.00;;;;;;5064566;28;20130;-65
2022/06/14 10:36:44;;;;;;;0.30;0.30;;;25.20;79.00;;;;;;5063700;28;20158;-64
2022/06/14 10:39:26;;;;;;;2.83;1.15;;;25.20;79.00;;;;;;5067128;28;20048;-62
2022/06/14 10:42:11;;;;;;;0.30;0.30;;;25.20;78.90;;;;;;5056289;28;20400;-63
2022/06/14 10:44:49;;;;;;;1.17;1.05;;;25.20;78.70;;;;;;5054936;28;20051;-64
2022/06/14 10:47:29;;;;;;;0.20;0.20;;;25.20;78.70;;;;;;5061917;28;20365;-63
2022/06/14 10:50:05;;;;;;;0.35;0.35;;;25.20;78.60;;;;;;5064411;28;20124;-60
2022/06/14 10:52:56;;;;;;;0.50;0.50;;;25.20;78.60;;;;;;5059131;28;20067;-66
2022/06/14 10:55:23;;;;;;;0.50;0.50;;;25.20;78.70;;;;;;5048744;28;20083;-65
2022/06/14 10:58:21;;;;;;;0.30;0.30;;;25.20;78.80;;;;;;5070929;28;20167;-65
2022/06/14 11:01:17;;;;;;;0.20;0.20;;;25.20;78.80;;;;;;5068004;28;20048;-63
2022/06/14 11:04:12;;;;;;;0.95;0.95;;;25.20;78.90;;;;;;5060647;28;20410;-57
2022/06/14 11:07:14;;;;;;;0.63;0.63;;;25.20;78.90;;;;;;5050518;28;20432;-61
2022/06/14 11:09:53;;;;;;;1.85;0.55;;;25.20;79.00;;;;;;5053751;28;20057;-64
2022/06/14 11:12:26;;;;;;;0.50;0.50;;;25.20;79.10;;;;;;5055360;28;20060;-64
2022/06/14 11:15:25;;;;;;;0.30;0.30;;;25.20;79.20;;;;;;5061709;28;20051;-63
2022/06/14 11:18:07;;;;;;;2.67;1.40;;;25.20;79.30;;;;;;5059640;28;20036;-64
2022/06/14 11:20:47;;;;;;;0.50;0.50;;;25.20;79.30;;;;;;5067209;28;20044;-60
2022/06/14 11:23:24;;;;;;;0.40;0.40;;;25.10;79.70;;;;;;5063500;28;20056;-55
2022/06/14 11:26:16;;;;;;;0.23;0.23;;;25.10;78.70;;;;;;5068565;28;20043;-62
2022/06/14 11:29:06;;;;;;;1.60;0.60;;;25.00;74.80;;;;;;5054565;28;20052;-58
2022/06/14 11:31:48;;;;;;;2.67;1.15;;;25.00;75.30;;;;;;5064321;28;20056;-62
2022/06/14 11:34:40;;;;;;;0.45;0.45;;;24.90;75.80;;;;;;5072645;28;20048;-63
2022/06/14 11:37:13;;;;;;;0.40;0.40;;;24.90;74.80;;;;;;5061287;28;20420;-62
2022/06/14 11:40:11;;;;;;;1.45;1.25;;;24.90;72.20;;;;;;5066710;28;20044;-63
2022/06/14 11:42:59;;;;;;;1.08;0.77;;;24.70;70.50;;;;;;5053833;28;20415;-64
2022/06/14 11:45:35;;;;;;;0.30;0.30;;;24.60;67.40;;;;;;5064452;28;20045;-60
2022/06/14 11:48:29;;;;;;;0.70;0.70;;;24.70;67.40;;;;;;5046828;28;20047;-61
2022/06/14 11:51:21;;;;;;;0.50;0.50;;;24.70;67.50;;;;;;5062154;28;20040;-61
2022/06/14 11:54:15;;;;;;;0.90;0.55;;;24.80;67.60;;;;;;5060087;28;20048;-62
2022/06/14 11:56:42;;;;;;;0.57;0.57;;;24.80;64.70;;;;;;5068944;28;20044;-63
2022/06/14 11:59:16;;;;;;;0.30;0.30;;;24.50;62.40;;;;;;5068906;28;20089;-60
2022/06/14 12:02:01;;;;;;;0.40;0.40;;;24.50;63.30;;;;;;5065118;28;20432;-63
2022/06/14 12:04:46;;;;;;;0.50;0.50;;;24.40;64.30;;;;;;5080194;28;20048;-59
2022/06/14 12:07:26;;;;;;;2.25;1.38;;;24.60;64.70;;;;;;5049457;28;20530;-60
2022/06/14 12:10:18;;;;;;;1.10;0.73;;;24.60;63.20;;;;;;5056591;28;20045;-60
2022/06/14 12:13:03;;;;;;;1.00;0.65;;;24.50;63.50;;;;;;5075654;28;20047;-59
2022/06/14 12:15:48;;;;;;;0.65;0.50;;;24.50;63.20;;;;;;5067549;28;20056;-62
2022/06/14 12:18:20;;;;;;;0.30;0.30;;;24.50;64.20;;;;;;5064975;28;20365;-59
2022/06/14 12:21:01;;;;;;;1.75;0.90;;;24.50;65.60;;;;;;5081660;28;20488;-58
2022/06/14 12:23:37;;;;;;;0.32;0.32;;;24.70;66.20;;;;;;5047175;28;20724;-59
2022/06/14 12:29:13;;;;;;;2.75;1.48;;;25.00;69.80;;;;;;5061182;28;20051;-57
2022/06/14 12:31:47;;;;;;;2.92;0.50;;;25.10;69.20;;;;;;5060969;28;20052;-59
2022/06/14 12:34:36;;;;;;;2.20;1.08;;;25.10;69.40;;;;;;5066222;28;20741;-62
2022/06/14 12:37:22;;;;;;;0.35;0.35;;;25.10;70.50;;;;;;5069619;28;20047;-56
2022/06/14 12:40:13;;;;;;;0.40;0.40;;;25.10;70.60;;;;;;5058033;28;20212;-57
2022/06/14 12:42:52;;;;;;;0.90;0.75;;;25.20;70.90;;;;;;5061659;28;20051;-57
2022/06/14 12:45:45;;;;;;;0.50;0.50;;;25.20;71.20;;;;;;5062130;28;20052;-55
2022/06/14 12:48:38;;;;;;;0.45;0.40;;;25.20;71.20;;;;;;5061424;28;20068;-58
2022/06/14 12:51:14;;;;;;;2.90;1.30;;;25.20;71.20;;;;;;5059600;28;20051;-56
2022/06/14 12:54:00;;;;;;;0.60;0.60;;;25.20;71.20;;;;;;5060781;28;20053;-61
2022/06/14 12:56:45;;;;;;;0.50;0.50;;;25.20;71.10;;;;;;5057425;28;20068;-60
2022/06/14 12:59:25;;;;;;;0.28;0.28;;;25.20;71.00;;;;;;5074109;28;20059;-57
2022/06/14 13:02:12;;;;;;;0.60;0.60;;;25.20;70.60;;;;;;5080949;28;20052;-61
2022/06/14 13:05:07;;;;;;;0.50;0.50;;;25.20;70.10;;;;;;5067618;28;20087;-61
2022/06/14 13:07:49;;;;;;;0.47;0.47;;;25.30;71.60;;;;;;5041115;28;20048;-68
2022/06/14 13:10:52;;;;;;;0.90;0.80;;;25.40;73.10;;;;;;5065004;28;20075;-62
2022/06/14 13:13:38;;;;;;;0.40;0.40;;;25.50;74.40;;;;;;5063954;28;20499;-61
2022/06/14 13:16:25;;;;;;;0.30;0.30;;;25.60;76.10;;;;;;5050613;28;20405;-63
2022/06/14 13:19:31;;;;;;;0.30;0.30;;;25.70;76.60;;;;;;5067726;28;20502;-63
2022/06/14 13:22:13;;;;;;;0.20;0.20;;;25.70;77.70;;;;;;5065445;28;20052;-65
2022/06/14 13:25:05;;;;;;;0.50;0.50;;;25.70;78.10;;;;;;5061541;28;20036;-62
2022/06/14 13:27:44;;;;;;;0.38;0.38;;;25.80;78.20;;;;;;5066965;28;20044;-61
2022/06/14 13:30:15;;;;;;;1.15;0.47;;;25.80;78.30;;;;;;5063076;28;20048;-64
2022/06/14 13:33:07;;;;;;;0.30;0.30;;;25.90;79.10;;;;;;5062464;28;20041;-59
2022/06/14 13:35:52;;;;;;;0.63;0.63;;;25.90;78.80;;;;;;5063631;28;20056;-56
2022/06/14 13:38:35;;;;;;;0.28;0.28;;;25.90;79.50;;;;;;5057554;28;20060;-61
2022/06/14 13:41:27;;;;;;;0.30;0.30;;;26.00;79.40;;;;;;5045329;28;20053;-63
2022/06/14 13:44:12;;;;;;;1.25;0.85;;;26.00;79.50;;;;;;5054599;28;20628;-63
2022/06/14 13:47:01;;;;;;;0.52;0.52;;;26.00;79.30;;;;;;5054654;28;20051;-59
2022/06/14 13:49:35;;;;;;;0.52;0.52;;;26.10;79.10;;;;;;5068479;28;20067;-61
2022/06/14 13:52:34;;;;;;;1.38;0.70;;;26.10;78.90;;;;;;5059934;28;20495;-61
2022/06/14 13:55:17;;;;;;;0.40;0.40;;;26.10;78.70;;;;;;5063256;28;20041;-59
2022/06/14 13:58:20;;;;;;;0.45;0.40;;;26.10;78.40;;;;;;5045233;28;20052;-57
2022/06/14 14:01:00;;;;;;;2.25;0.85;;;26.20;78.40;;;;;;5036023;28;20067;-59
2022/06/14 14:03:39;;;;;;;0.30;0.30;;;26.20;78.60;;;;;;5041849;28;20056;-53
2022/06/14 14:06:25;;;;;;;1.00;0.95;;;26.30;72.90;;;;;;5062217;28;20512;-58
2022/06/14 14:09:09;;;;;;;0.65;0.65;;;26.40;72.20;;;;;;5060136;28;20045;-59
2022/06/14 14:11:58;;;;;;;0.73;0.73;;;26.40;72.50;;;;;;5062092;28;20040;-59
2022/06/14 14:14:41;;;;;;;1.08;0.90;;;26.50;72.90;;;;;;5060647;28;20076;-58
2022/06/14 14:17:43;;;;;;;0.63;0.63;;;26.50;73.90;;;;;;5072400;28;20060;-58
2022/06/14 14:20:32;;;;;;;0.52;0.52;;;26.40;72.20;;;;;;5068251;28;20155;-58